Weather observations for the past three days for
Neil Armstrong Airport
Metric (Imperial)
Date Time (edt) Wind (kph) Vis. (km) Weather Sky Cond. Temperature (ºC) Relative Humidity Wind Chill (°C) Heat Index (°C) Pressure Precipitation (cm)
Air Dwpt 6 hour altimeter (cm) sea level (mb) 1 hr 3 hr 6 hr
Max. Min.
07 16:15 NW 17 G 31 16.09 Overcast BKN065 OVC075 14 0 39% 76.02 0.0
07 15:55 W 17 G 28 16.09 Mostly Cloudy BKN065 BKN075 13 0 41% 76.05 0.0
07 15:35 W 20 G 31 16.09 Fair CLR 13 0 41% 76.05 0.0
07 15:15 NW 22 G 31 16.09 Partly Cloudy SCT055 13 0 41% 76.05 0.0
07 14:55 NW 20 G 31 16.09 Partly Cloudy SCT055 13 0 41% 76.05 0.0
07 14:35 NW 19 G 28 16.09 Partly Cloudy SCT055 13 0 41% 76.07 0.0
07 14:15 NW 19 G 30 16.09 Partly Cloudy SCT055 12 0 44% 76.07 0.0
07 13:55 NW 19 G 31 16.09 Fair CLR 12 0 44% 76.1 0.0
07 13:35 NW 20 G 33 16.09 Fair CLR 12 0 44% 76.1 0.0
07 13:15 NW 13 G 33 16.09 Fair CLR 12 0 44% 76.12 0.0
07 12:55 NW 17 G 30 16.09 Fair CLR 11 0 47% 76.15 0.0
07 12:35 W 15 16.09 Fair CLR 11 0 47% 76.15 0.0
07 12:15 W 15 G 28 16.09 Fair CLR 10 0 50% 8 76.15 0.0
07 11:55 NW 13 G 26 16.09 Fair CLR 10 0 50% 8 76.15 0.0
07 11:35 NW 20 G 33 16.09 Fair CLR 10 0 50% 8 76.15 0.0
07 11:15 W 19 G 30 16.09 Fair CLR 9 0 54% 7 76.15 0.0
07 10:55 W 22 G 33 16.09 Fair CLR 9 0 54% 6 76.15 0.0
07 10:35 W 19 G 28 16.09 Fair CLR 9 0 54% 7 76.15 0.0
07 10:15 W 19 16.09 Fair CLR 8 0 57% 5 76.12 0.0
07 09:55 W 13 16.09 Fair CLR 8 0 57% 6 76.15 0.0
07 09:35 W 11 16.09 Fair CLR 7 0 61% 5 76.15 0.0
07 09:15 W 9 16.09 Fair CLR 7 0 61% 5 76.15 0.0
07 08:55 NW 9 16.09 Fair CLR 7 0 61% 5 76.12 0.0
07 08:35 W 7 16.09 Fair CLR 6 1 71% 5 76.12 0.0
07 08:15 W 7 16.09 Fair CLR 5 1 76% 4 76.12 0.0
07 07:55 W 7 16.09 Fair CLR 5 2 81% 4 76.15 0.0
07 07:35 W 7 16.09 Fair CLR 4 2 87% 2 76.12 0.0
07 07:15 SW 6 16.09 Fair CLR 3 1 87% 76.1 0.0
07 06:55 SW 6 16.09 Fair CLR 2 1 93% 76.1 0.0
07 06:35 SW 7 16.09 Fair CLR 3 0 81% 1 76.1 0.0
07 06:15 SW 6 16.09 Fair CLR 2 0 87% 76.1 0.0
07 05:55 SW 7 16.09 Fair CLR 3 0 81% 1 76.07 0.0
07 05:35 W 7 16.09 Fair CLR 4 0 75% 2 76.1 0.0
07 05:15 W 7 16.09 Fair CLR 5 0 70% 4 76.07 0.0
07 04:55 W 6 16.09 Fair CLR 5 0 70% 76.07 0.0
07 04:35 W 9 16.09 Fair CLR 6 0 66% 4 76.07 0.0
07 04:15 W 7 16.09 Fair CLR 6 0 66% 5 76.07 0.0
07 03:55 W 7 16.09 Fair CLR 6 1 71% 5 76.07 0.0
07 03:35 W 9 16.09 Fair CLR 6 1 71% 4 76.07 0.0
07 03:15 W 7 16.09 Fair CLR 5 1 76% 4 76.07 0.0
07 02:55 W 6 16.09 Fair CLR 5 2 81% 76.07 0.0
07 02:35 SW 7 16.09 Fair CLR 5 2 81% 4 76.07 0.0
07 02:15 SW 6 16.09 Fair CLR 5 2 81% 76.07 0.0
07 01:55 Calm 16.09 Fair CLR 5 2 81% 76.07 0.0
07 01:35 Calm 16.09 Fair CLR 5 2 81% 76.1 0.0
07 01:15 Calm 16.09 Fair CLR 5 2 81% 76.07 0.0
07 00:55 Calm 16.09 Fair CLR 5 3 87% 76.1 0.0
07 00:35 Calm 16.09 Fair CLR 5 3 87% 76.07 0.0
07 00:15 Calm 16.09 Fair CLR 5 3 87% 76.07 0.0
06 23:55 Calm 16.09 Fair CLR 6 4 87% 76.07 0.0
06 23:35 Calm 16.09 Fair CLR 6 3 81% 76.07 0.0
06 23:15 Calm 16.09 Fair CLR 6 3 81% 76.1 0.0
06 22:55 Calm 16.09 Fair CLR 6 4 87% 76.1 0.0
06 22:35 Calm 16.09 Fair CLR 6 4 87% 76.1 0.0
06 22:15 Calm 16.09 Fair CLR 7 3 76% 76.1 0.0
06 21:55 Calm 16.09 Fair CLR 6 4 87% 76.07 0.0
06 21:35 Calm 16.09 Fair CLR 7 4 81% 76.07 0.0
06 21:15 Calm 16.09 Fair CLR 7 4 81% 76.05 0.0
06 20:55 Calm 16.09 Fair CLR 8 4 76% 76.05 0.0
06 20:35 Calm 16.09 Fair CLR 9 2 62% 76.05 0.0
06 20:15 Calm 16.09 Fair CLR 11 2 54% 76.02 0.0
06 19:55 W 7 16.09 Partly Cloudy SCT120 11 2 54% 76.02 0.0
06 19:35 W 13 16.09 Mostly Cloudy SCT090 BKN120 12 1 47% 76.02 0.0
06 19:15 W 9 16.09 Overcast OVC090 11 1 50% 76.05 0.0
06 18:55 W 15 16.09 Overcast SCT050 OVC090 11 1 50% 76.05 0.0
06 18:35 W 9 16.09 Overcast SCT050 OVC090 11 2 54% 76.05 0.0
06 18:15 W 13 16.09 Overcast OVC090 11 2 54% 76.05 0.0
06 17:55 W 9 16.09 Overcast OVC090 11 1 50% 76.05 0.0
06 17:35 W 13 16.09 Overcast OVC090 11 1 50% 76.05 0.0
06 17:15 W 13 16.09 Overcast OVC090 11 1 50% 76.02 0.0
06 16:55 W 7 16.09 Overcast OVC090 11 1 50% 76.02 0.0
06 16:35 W 11 16.09 Overcast OVC090 11 1 50% 76.02 0.0
06 16:15 W 11 16.09 Overcast OVC090 12 1 47% 76.02 0.0
06 15:55 W 11 16.09 Overcast OVC090 12 0 44% 76.02 0.0
06 15:35 W 7 16.09 Overcast OVC090 12 1 47% 76.02 0.0
06 15:15 W 11 16.09 Overcast OVC090 12 1 47% 76.02 0.0
06 14:55 NW 6 16.09 Overcast OVC090 12 1 47% 76.02 0.0
06 14:35 W 11 16.09 Overcast OVC100 11 1 50% 76.02 0.0
06 14:15 Calm 16.09 Overcast OVC100 11 1 50% 76 0.0
06 13:55 NW 11 16.09 Overcast OVC100 12 1 47% 76.02 0.0
06 13:35 NW 7 16.09 Mostly Cloudy SCT055 BKN100 12 1 47% 76.02 0.0
06 13:15 NW 13 16.09 Mostly Cloudy SCT065 BKN110 12 2 51% 76.02 0.0
06 12:55 NW 15 16.09 Mostly Cloudy SCT060 BKN110 12 2 51% 76.02 0.0
06 12:35 N 13 16.09 Mostly Cloudy SCT060 BKN120 12 2 51% 76.02 0.0
06 12:15 N 13 16.09 Partly Cloudy SCT110 12 3 54% 75.97 0.0
06 11:55 NW 6 16.09 Partly Cloudy SCT055 11 2 54% 76.02 0.0
06 11:35 NW 7 16.09 Fair CLR 11 3 58% 76 0.0
06 11:15 NW 15 16.09 Fair CLR 11 5 67% 75.97 0.0
06 10:55 NW 9 16.09 Fair CLR 10 4 67% 9 75.95 0.0
06 10:35 NW 9 16.09 Fair CLR 10 4 67% 9 75.95 0.0
06 10:15 NW 6 16.09 Fair CLR 9 5 76% 75.95 0.0
06 09:55 NW 11 16.09 Fair CLR 8 4 76% 6 75.92 0.0
06 09:35 NW 13 16.09 Partly Cloudy SCT070 8 5 82% 6 75.92 0.0
06 09:15 NW 7 16.09 Overcast OVC070 7 5 87% 6 75.92 0.0
06 08:55 NW 9 16.09 Overcast OVC060 7 5 87% 5 75.92 0.0
06 08:35 NW 6 16.09 Overcast OVC060 6 5 93% 75.87 0.0
06 08:15 Calm 16.09 Overcast OVC060 6 5 93% 75.87 0.0
06 07:55 W 7 16.09 Overcast OVC060 6 5 93% 5 75.87 0.0
06 07:35 Calm 16.09 Overcast OVC060 6 5 93% 75.82 0.0
06 07:15 NW 6 16.09 Overcast OVC050 6 5 93% 75.79 0.0
06 06:55 NW 6 16.09 Overcast OVC050 6 5 93% 75.77 0.0
06 06:35 Calm 16.09 Overcast OVC050 6 5 93% 75.74 0.0
06 06:15 Calm 16.09 Overcast OVC050 6 5 93% 75.74 0.0
06 05:55 Calm 16.09 Overcast OVC050 6 5 93% 75.74 0.0
06 05:35 N 7 16.09 Overcast BKN050 OVC085 6 5 93% 5 75.69 0.0
06 05:15 N 9 16.09 Overcast BKN048 OVC085 6 5 93% 4 75.69 0.0
06 04:55 N 11 16.09 Light Drizzle BKN045 BKN070 OVC085 6 5 93% 4 75.72 0.0 0.03
06 04:35 N 6 16.09 Light Rain SCT041 SCT050 OVC085 6 5 93% 75.67 0.0 0.03
06 04:15 Calm 16.09 Light Rain BKN075 OVC085 6 5 93% 75.69 0.0
06 03:55 N 7 16.09 Light Rain SCT075 OVC085 6 5 93% 5 75.72 0.0
06 03:35 N 6 16.09 Light Drizzle SCT080 OVC095 6 5 93% 75.69 0.0
06 03:15 N 7 16.09 Light Rain SCT041 BKN080 OVC095 6 5 93% 5 75.64 0.0
06 02:55 Calm 16.09 Light Rain OVC039 6 5 93% 75.69 0.0 0.05
06 02:35 N 9 16.09 Light Rain OVC037 6 5 93% 4 75.74 0.0 0.03
06 02:15 N 11 16.09 Light Drizzle SCT015 OVC037 6 5 93% 4 75.72 0.0
06 01:55 N 9 16.09 Light Drizzle BKN013 OVC035 6 5 93% 4 75.72 0.0 0.05
06 01:35 NW 6 16.09 Light Rain SCT011 BKN035 OVC075 6 6 100% 75.72 0.0 0.05
06 01:15 N 9 16.09 Light Rain SCT033 BKN075 OVC085 6 6 100% 4 75.67 0.0 0.05
06 00:55 N 9 11.27 Light Rain BKN033 OVC055 7 6 93% 5 75.72 0.0 0.08
06 00:35 N 13 16.09 Overcast SCT016 OVC033 7 6 93% 5 75.72 0.0 0.05
06 00:15 N 11 16.09 Light Rain SCT016 BKN033 OVC049 6 6 100% 4 75.69 0.0 0.05
05 23:55 N 15 8.05 Light Rain BKN016 OVC047 7 6 93% 5 75.69 0.0 0.13
05 23:35 N 11 11.27 Light Rain SCT006 BKN016 OVC021 7 7 100% 5 75.72 0.0 0.08
05 23:15 N 11 11.27 Light Rain BKN006 BKN014 OVC021 7 7 100% 5 75.69 0.0 0.03
05 22:55 N 7 16.09 Light Rain SCT006 BKN021 OVC037 7 7 100% 6 75.72 0.0 0.13
05 22:35 NE 6 11.27 Light Rain SCT006 SCT015 OVC039 7 7 100% 75.69 0.0 0.1
05 22:15 Calm 8.05 Light Rain SCT006 SCT013 OVC039 7 7 100% 75.72 0.0 0.08
05 21:55 Calm 11.27 Light Rain SCT006 BKN014 OVC038 7 7 100% 75.72 0.0 0.28
05 21:35 NE 7 8.05 Light Rain SCT005 BKN008 OVC037 7 7 100% 6 75.69 0.0 0.23
05 21:15 N 9 8.05 Rain BKN007 BKN010 OVC035 8 7 93% 7 75.69 0.0 0.13
05 20:55 N 9 8.05 Light Rain BKN007 BKN014 OVC029 8 7 93% 7 75.69 0.0 0.15
05 20:35 N 11 11.27 Light Rain SCT007 OVC029 8 8 100% 6 75.67 0.0 0.08
05 20:15 N 11 16.09 Light Rain SCT005 SCT010 OVC027 8 8 100% 6 75.64 0.0 0.03
05 19:55 N 13 16.09 Light Drizzle BKN005 BKN008 OVC025 8 8 100% 6 75.67 0.0 0.05
05 19:35 N 20 6.44 Light Rain OVC005 8 8 100% 5 75.67 0.0 0.05
05 19:15 N 17 4.83 Light Rain OVC005 8 8 100% 6 75.67 0.0 0.03
05 18:55 N 19 4.83 Light Drizzle BKN005 OVC010 8 8 100% 5 75.67 0.0 0.1
05 18:35 N 15 4.83 Light Drizzle BKN005 OVC012 8 8 100% 6 75.67 0.0 0.08
05 18:15 N 15 3.22 Light Rain BKN005 OVC011 9 8 94% 7 75.67 0.0 0.05
05 17:55 N 19 3.22 Light Rain OVC003 10 10 100% 8 75.62 0.0 0.2
05 17:35 N 13 4.02 Light Rain OVC005 10 10 100% 8 75.59 0.0 0.1
05 17:15 N 11 8.05 Light Rain BKN005 OVC009 11 11 100% 75.57 0.0 0.05
05 16:55 Calm 11.27 Light Rain BKN005 OVC013 11 11 100% 75.59 0.0 0.13
05 16:35 N 11 11.27 Light Rain BKN007 OVC013 11 11 100% 75.62 0.0 0.1
05 16:15 NW 6 8.05 Light Rain BKN004 OVC009 11 11 100% 75.64 0.0 0.05
05 15:55 Calm 4.83 Light Rain BKN004 OVC011 11 11 100% 75.62 0.0 0.25
05 15:35 N 9 4.83 Light Rain SCT004 BKN011 OVC018 11 11 100% 75.62 0.0 0.13
05 15:15 N 9 11.27 Light Rain SCT007 BKN019 OVC041 12 12 100% 75.62 0.0 0.03
05 14:55 N 11 8.05 Light Rain SCT007 BKN014 OVC019 13 12 94% 75.59 0.0 0.05
05 14:35 NW 6 11.27 Light Rain BKN011 OVC018 14 13 94% 75.64 0.0
05 14:15 NW 9 16.09 Overcast BKN011 BKN024 OVC037 15 13 88% 75.64 0.0
05 13:55 W 11 16.09 Light Rain SCT009 BKN036 OVC085 15 13 88% 75.64 0.0
05 13:35 W 11 16.09 Light Rain SCT032 BKN060 OVC085 15 13 88% 75.62 0.0
05 13:15 W 9 16.09 Overcast SCT031 SCT042 OVC050 14 13 94% 75.64 0.0
05 12:55 W 11 16.09 Light Rain SCT022 OVC031 14 13 94% 75.67 0.0 0.03
05 12:35 W 15 G 28 11.27 Light Rain BKN022 OVC029 14 12 88% 75.67 0.0
05 12:15 W 20 16.09 Overcast OVC026 15 12 82% 75.67 0.0
05 11:55 W 19 G 31 16.09 Overcast OVC024 16 12 77% 75.67 0.0
05 11:35 W 26 G 35 16.09 Overcast OVC022 17 12 73% 75.64 0.0
05 11:15 W 33 G 44 16.09 Overcast and Breezy OVC024 17 12 73% 75.62 0.0
05 10:55 SW 35 G 43 16.09 Mostly Cloudy and Breezy BKN026 BKN035 BKN043 17 12 73% 75.62 0.0
05 10:35 SW 30 G 39 16.09 Mostly Cloudy SCT028 BKN035 17 12 73% 75.59 0.0
05 10:15 SW 31 G 41 16.09 Partly Cloudy SCT035 17 12 73% 75.57 0.0
05 09:55 SW 31 16.09 Partly Cloudy SCT037 16 12 77% 75.54 0.0
05 09:35 SW 20 G 33 16.09 Fair CLR 16 11 72% 75.54 0.0
05 09:15 SW 19 G 31 16.09 Fair CLR 15 11 77% 75.49 0.0
05 08:55 S 17 16.09 Fair CLR 15 11 77% 75.51 0.0
05 08:35 SW 15 16.09 Fair CLR 14 11 82% 75.54 0.0
05 08:15 SW 17 16.09 Fair CLR 13 11 88% 75.54 0.0
05 07:55 SW 15 16.09 Fair CLR 13 11 88% 75.51 0.0
05 07:35 SW 19 16.09 Fair CLR 13 11 88% 75.49 0.0
05 07:15 SW 17 16.09 Fair CLR 12 11 94% 75.46 0.0
05 06:55 SW 24 16.09 Fair CLR 13 11 88% 75.41 0.0
05 06:35 S 20 G 35 16.09 Partly Cloudy SCT120 13 11 88% 75.39 0.0
05 06:15 S 24 G 35 16.09 Partly Cloudy SCT120 12 11 94% 75.36 0.0
05 05:55 S 31 G 41 16.09 Partly Cloudy SCT080 13 11 88% 75.31 0.0 0.03
05 05:35 S 30 G 35 16.09 Light Drizzle SCT060 BKN080 BKN090 13 11 88% 75.36 0.0 0.03
05 05:15 S 26 16.09 Light Rain SCT050 BKN080 OVC090 13 10 82% 75.39 0.0 0.03
05 04:55 S 30 G 37 16.09 Rain SCT046 SCT050 OVC080 13 11 88% 75.41 0.0 0.33
05 04:35 SW 22 16.09 Rain SCT060 OVC080 12 12 100% 75.49 0.0 0.15
05 04:15 SW 17 G 28 16.09 Light Rain OVC080 13 12 94% 75.49 0.0 0.05
05 03:55 W 17 16.09 Light Rain SCT065 OVC090 13 12 94% 75.49 0.0
05 03:35 W 22 G 30 16.09 Overcast SCT065 BKN100 OVC120 13 11 88% 75.46 0.0
05 03:15 W 13 16.09 Light Rain SCT065 BKN080 OVC110 14 11 82% 75.46 0.0
05 02:55 W 22 G 30 16.09 Light Rain SCT050 OVC080 15 11 77% 75.44 0.0 0.05
05 02:35 W 20 G 28 16.09 Thunderstorm BKN050 OVC065 17 10 64% 75.44 0.0
05 02:15 W 20 G 37 16.09 Overcast SCT055 BKN065 OVC075 18 10 60% 75.39 0.0
05 01:55 SW 22 G 33 16.09 Overcast SCT065 BKN075 OVC090 17 10 64% 75.31 0.0
05 01:35 SW 24 G 33 16.09 Mostly Cloudy BKN075 BKN090 18 10 60% 75.29 0.0
05 01:15 S 24 16.09 Mostly Cloudy BKN090 18 10 60% 75.29 0.0
05 00:55 S 22 G 37 16.09 Mostly Cloudy BKN090 BKN120 18 10 60% 75.29 0.0
05 00:35 S 26 G 35 16.09 Mostly Cloudy BKN090 BKN110 18 10 60% 75.29 0.0
05 00:15 S 22 16.09 Mostly Cloudy BKN090 18 10 60% 75.29 0.0
04 23:55 S 24 16.09 Mostly Cloudy SCT075 BKN100 18 10 60% 75.31 0.0
04 23:35 S 22 16.09 Mostly Cloudy SCT075 BKN100 18 10 60% 75.31 0.0
04 23:15 S 24 G 35 16.09 Mostly Cloudy BKN100 BKN120 18 10 60% 75.34 0.0
04 22:55 S 20 16.09 Overcast OVC100 19 10 56% 75.34 0.0
04 22:35 S 20 G 30 16.09 Overcast OVC100 19 10 56% 75.34 0.0
04 22:15 S 20 16.09 Overcast OVC100 19 10 56% 75.31 0.0
04 21:55 S 19 16.09 Overcast OVC100 19 10 56% 75.31 0.0
04 21:35 S 20 16.09 Overcast OVC110 19 10 56% 75.31 0.0
04 21:15 S 20 16.09 Mostly Cloudy BKN110 19 10 56% 75.29 0.0
04 20:55 S 17 16.09 Partly Cloudy SCT100 19 10 56% 75.29 0.0
04 20:35 S 17 16.09 Overcast OVC110 20 10 53% 75.29 0.0
04 20:15 S 19 16.09 Overcast OVC110 20 10 53% 75.29 0.0
04 19:55 S 22 G 31 16.09 Mostly Cloudy SCT085 BKN110 20 9 49% 75.29 0.0
04 19:35 SW 26 G 33 16.09 Partly Cloudy SCT090 SCT120 21 9 46% 75.31 0.0
04 19:15 SW 26 G 43 16.09 Partly Cloudy SCT090 21 8 43% 75.31 0.0
04 18:55 SW 22 G 37 16.09 Partly Cloudy SCT090 21 8 43% 75.34 0.0
04 18:35 SW 39 G 56 16.09 Partly Cloudy and Breezy SCT120 22 8 41% 75.34 0.0
04 18:15 SW 41 G 52 16.09 Mostly Cloudy and Breezy BKN110 23 7 36% 75.31 0.0
04 17:55 SW 35 G 48 16.09 Overcast and Breezy OVC110 22 8 41% 75.31 0.0
04 17:35 SW 37 G 52 16.09 Mostly Cloudy and Breezy BKN110 23 8 38% 75.31 0.0
04 17:15 SW 37 G 54 16.09 Fair and Breezy CLR 23 9 41% 75.34 0.0
04 16:55 SW 43 G 59 16.09 Fair and Windy CLR 23 9 41% 75.34 0.0
04 16:35 SW 46 G 63 16.09 Partly Cloudy and Windy SCT100 23 10 44% 75.36 0.0
Date Time (edt) Wind (kph) Vis. (km) Weather Sky Cond. Air Dwpt Max. Min. Relative Humidity Wind Chill (°C) Heat Index (°C) altimeter (cm) sea level (mb) 1 hr 3 hr 6 hr
6 hour
Temperature (ºC) Pressure Precipitation (cm)